Nova Odessa, Brazil
Current Conditions -  °F | °C
As of 6:00 PM on Monday 22 Dec 2014 (Local Time) from SBKP Reporting Station
Thunderstorm Thunderstorm  
Wind Chill: 82°   Ceiling: Unl
Heat Index: 85°   Visibility: 6mi
Dew Point: 68°   Wind: 5mph
Humidity: 62%   Direction: 210°SSW
Pressure: NA   Gusts: NA
Location:  22.78°S, 47.3°W
Report Text: SBKP 222000Z 21004KT 9999 4000NW -TSRA FEW035 FEW045CB 28/20 Q1012
Loading
Personal Weather Stations






























Interactive Weather Map New forecast layout! Learn more

10-Day Weather Forecast

Advertisements
Track Severe Weather on mobile